Aérodrome :
LOGIN :

S'inscrire | Disclaimer

   EN    FR    IT 

 










Légende :    VFR   VFR Marginal   IFR   IFR Intensif   IFR Très Intensif
Visi : 
Plafond : 
>= 8 km
>= 3000ft
5 à 8 km
1000 à 3000 ft
1500m à 5 km
500 à 1000 ft
800 à 1500m
200 à 500 ft
< 800m
< 200 ft
Symboles :   Orages  Brouillard  Fortes neiges  Fortes précipitations  Vent > 20 kt
SIGMETs :   Divers  Orages  Givrage  Turbulence  Onde Orograph.  Cendres Volcan.







- Altitude de l'aérodrome : 468 ft
- Code IATA : GRO


LEGE - Girona Costa Brava

DERNIER METAR :
  • 280030Z 00000KT CAVOK 02/01 Q1017

METARs EXPIRÉS :
  • 280000Z 00000KT CAVOK 02/02 Q1017
  • 272330Z 31004KT 290V350 CAVOK 03/03 Q1017
  • 272300Z 00000KT CAVOK 03/02 Q1017
  • 272230Z VRB01KT CAVOK 03/02 Q1017
  • 272200Z 30003KT 260V020 9999 FEW080 04/03 Q1017
  • 272130Z 00000KT 9999 FEW080 04/03 Q1017

TAF TAF LEGE
Valide du 28 à 00h jusqu'au 29 à 00h UTC


272300Z 2800/2824 VRB04KT 9999 SCT024 TX20/2813Z TN01/2806Z
PROB30
TEMPO 2800/2808 3000 BR BKN008
TEMPO 2814/2818 16010KT
Pas de NOTAMs connus pour ce terrain.



MET'MAP, la Météo Aéronautique d'un coup d'oeil ! - Copyright ORBIFLY Décembre 2007 - Disclaimer

ORBIFLY MET'MAP TEAM :

Programmation & Développement : Alexandra Zaïnal
Conception & Développement : Baudouin d'Aumeries
Co-Programmation & Développement : Marc-Olivier Méhu
Soutien technique & logistique : Manuel Goepfert

Contact : metmap@orbifly.com




SOURCES & CREDITS :

   NOAA